Flight Track Log - Related Links

Times and Time Zones

All times are in EDT time to prevent confusion due to time zone crossing. See the JBU673 flight status page for this flight to view local times or setup timezone preferences in your user account.

Time Position Orientation Groundspeed Altitude Reporting Facility
EDT Latitude Longitude Course Direction KTS MPH feet Rate Location/Type
Wed 11:29:32 AM 40.6380 -73.7730 27° Northeast 170 196 100  Level FlightAware ADS-B
Wed 11:30:02 AM 40.6570 -73.7530 39° Northeast 176 203 1,400 2,133 Climbing FlightAware ADS-B
Wed 11:30:17 AM 40.6590 -73.7410 78° East 188 216 1,700 1,029 Climbing FlightAware ADS-B
Wed 11:30:37 AM 40.6490 -73.7170 119° Southeast 218 251 2,000 857 Climbing FlightAware ADS-B
Wed 11:30:52 AM 40.6350 -73.7110 162° South 229 264 2,200 1,371 Climbing FlightAware ADS-B
Wed 11:31:12 AM 40.6120 -73.7180 193° South 244 281 2,800 2,133 Climbing FlightAware ADS-B
Wed 11:31:37 AM 40.5830 -73.7210 184° South 262 302 3,800 2,509 Climbing FlightAware ADS-B
Wed 11:32:07 AM 40.5460 -73.7250 185° South 267 307 5,100 2,727 Climbing FlightAware ADS-B
Wed 11:32:21 AM 40.5271 -73.7327 197° South 267 307 5,800 2,824 Climbing FlightAware ADS-B
Wed 11:32:41 AM 40.5041 -73.7437 200° South 272 313 6,700 2,743 Climbing FlightAware ADS-B
Wed 11:32:56 AM 40.4861 -73.7524 200° South 272 313 7,400 2,769 Climbing FlightAware ADS-B
Wed 11:33:07 AM 40.4736 -73.7614 209° Southwest 269 310 7,900 2,400 Climbing FlightAware ADS-B
Wed 11:33:16 AM 40.4668 -73.7708 226° Southwest 266 306 8,200 2,250 Climbing FlightAware ADS-B
Wed 11:33:23 AM 40.4624 -73.7809 240° Southwest 262 302 8,500 2,500 Climbing FlightAware ADS-B
Wed 11:33:40 AM 40.4540 -73.8053 246° West 265 305 9,200 2,438 Climbing FlightAware ADS-B
Wed 11:33:55 AM 40.4461 -73.8285 246° West 266 306 9,800 2,082 Climbing FlightAware ADS-B
Wed 11:34:29 AM 40.4286 -73.8778 245° Southwest 279 321 10,900 1,075 Climbing FlightAware ADS-B
Wed 11:35:02 AM 40.4085 -73.9335 245° Southwest 328 377 11,000 277 Climbing FlightAware ADS-B
Wed 11:35:34 AM 40.3863 -73.9938 244° Southwest 363 418 11,200 1,292 Climbing FlightAware ADS-B
Wed 11:36:07 AM 40.3621 -74.0596 244° Southwest 366 421 12,400 2,206 Climbing FlightAware ADS-B
Wed 11:36:42 AM 40.3361 -74.1304 244° Southwest 366 421 13,700 1,970 Climbing FlightAware ADS-B
Wed 11:37:14 AM 40.3125 -74.1947 244° Southwest 371 427 14,600 1,258 Climbing FlightAware ADS-B
Wed 11:37:44 AM 40.2898 -74.2570 244° Southwest 378 435 15,000 393 Climbing FlightAware ADS-B
Wed 11:38:15 AM 40.2665 -74.3201 244° Southwest 378 435 15,000 677 Level FlightAware ADS-B
Wed 11:38:46 AM 40.2434 -74.3829 244° Southwest 381 438 15,700 2,250 Climbing FlightAware ADS-B
Wed 11:39:19 AM 40.2186 -74.4497 244° Southwest 362 417 17,400 2,809 Climbing FlightAware ADS-B
Wed 11:39:33 AM 40.2082 -74.4779 244° Southwest 361 415 17,900 1,826 Climbing FlightAware ADS-B
Wed 11:39:42 AM 40.2032 -74.4958 250° West 359 413 18,100 1,714 Climbing FlightAware ADS-B
Wed 11:39:47 AM 40.2013 -74.5064 257° West 359 413 18,300 1,636 Climbing FlightAware ADS-B
Wed 11:40:15 AM 40.1955 -74.5672 263° West 361 415 19,000 1,424 Climbing FlightAware ADS-B
Wed 11:40:46 AM 40.1909 -74.6337 265° West 368 423 19,700 1,355 Climbing FlightAware ADS-B
Wed 11:41:17 AM 40.1857 -74.7042 265° West 375 432 20,400 1,279 Climbing FlightAware ADS-B
Wed 11:41:47 AM 40.1803 -74.7725 264° West 381 438 21,000 1,082 Climbing FlightAware ADS-B
Wed 11:42:18 AM 40.1747 -74.8431 264° West 389 448 21,500 1,031 Climbing FlightAware ADS-B
Wed 11:42:51 AM 40.1684 -74.9215 264° West 397 457 22,100 1,143 Climbing FlightAware ADS-B
Wed 11:43:21 AM 40.1625 -74.9930 264° West 400 460 22,700 1,082 Climbing FlightAware ADS-B
Wed 11:43:52 AM 40.1564 -75.0670 264° West 405 466 23,200 1,143 Climbing FlightAware ADS-B
Wed 11:44:24 AM 40.1496 -75.1469 264° West 408 470 23,900 1,161 Climbing FlightAware ADS-B
Wed 11:44:54 AM 40.1433 -75.2209 264° West 413 475 24,400 885 Climbing FlightAware ADS-B
Wed 11:45:25 AM 40.1370 -75.2978 264° West 416 479 24,800 871 Climbing FlightAware ADS-B
Wed 11:45:56 AM 40.1305 -75.3750 264° West 420 483 25,300 938 Climbing FlightAware ADS-B
Wed 11:46:29 AM 40.1234 -75.4589 264° West 424 488 25,800 656 Climbing FlightAware ADS-B
Wed 11:47:00 AM 40.1166 -75.5379 264° West 437 503 26,000 667 Climbing FlightAware ADS-B
Wed 11:47:32 AM 40.1094 -75.6214 264° West 439 505 26,500 889 Climbing FlightAware ADS-B
Wed 11:47:54 AM 40.1048 -75.6787 264° West 440 506 26,800 833 Climbing FlightAware ADS-B
Wed 11:48:08 AM 40.1044 -75.7168 269° West 440 506 27,000 818 Climbing FlightAware ADS-B
Wed 11:48:38 AM 40.1051 -75.7973 271° West 443 510 27,400 787 Climbing FlightAware ADS-B
Wed 11:49:09 AM 40.1053 -75.8802 270° West 444 511 27,800 774 Climbing FlightAware ADS-B
Wed 11:49:40 AM 40.1054 -75.9619 270° West 446 513 28,200 952 Climbing FlightAware ADS-B
Wed 11:50:12 AM 40.1055 -76.0484 270° West 444 511 28,800 1,143 Climbing FlightAware ADS-B
Wed 11:50:43 AM 40.1056 -76.1299 270° West 440 506 29,400 1,082 Climbing FlightAware ADS-B
Wed 11:51:13 AM 40.1056 -76.2108 270° West 439 505 29,900 968 Climbing FlightAware ADS-B
Wed 11:51:45 AM 40.1057 -76.2944 270° West 436 502 30,400 871 Climbing FlightAware ADS-B
Wed 11:52:15 AM 40.1058 -76.3740 270° West 436 502 30,800 885 Climbing FlightAware ADS-B
Wed 11:52:46 AM 40.1057 -76.4545 270° West 435 501 31,300 968 Climbing FlightAware ADS-B
Wed 11:53:17 AM 40.1056 -76.5356 270° West 430 495 31,800 844 Climbing FlightAware ADS-B
Wed 11:53:50 AM 40.1054 -76.6200 270° West 430 495 32,200 472 Climbing FlightAware ADS-B
Wed 11:54:46 AM 40.1048 -76.7671 270° West 435 501 32,500 409 Climbing FlightAware ADS-B
Wed 11:55:18 AM 40.1044 -76.8502 270° West 436 502 32,800 667 Climbing FlightAware ADS-B
Wed 11:55:49 AM 40.1040 -76.9316 270° West 435 501 33,200 677 Climbing FlightAware ADS-B
Wed 11:56:20 AM 40.1035 -77.0125 270° West 433 498 33,500 677 Climbing FlightAware ADS-B
Wed 11:56:51 AM 40.1030 -77.0950 270° West 431 496 33,900 441 Climbing FlightAware ADS-B
Wed 11:57:28 AM 40.1022 -77.1893 269° West 426 490 34,000 86 Climbing FlightAware ADS-B
Wed 11:58:01 AM 40.1015 -77.2736 269° West 417 480 34,000  Level FlightAware ADS-B
Wed 11:58:33 AM 40.1008 -77.3526 269° West 421 484 34,000  Level FlightAware ADS-B
Wed 11:59:06 AM 40.1001 -77.4370 269° West 425 489 34,000  Level FlightAware ADS-B
Wed 11:59:39 AM 40.0991 -77.5228 269° West 427 491 34,000  Level FlightAware ADS-B
Wed 12:00:11 PM 40.0982 -77.6032 269° West 426 490 34,000  Level FlightAware ADS-B
Wed 12:00:47 PM 40.0972 -77.6959 269° West 425 489 34,000  Level FlightAware ADS-B
Wed 12:01:17 PM 40.0962 -77.7736 269° West 427 491 34,000  Level FlightAware ADS-B
Wed 12:02:01 PM 40.0947 -77.8860 269° West 427 491 34,000  Level FlightAware ADS-B
Wed 12:02:35 PM 40.0934 -77.9730 269° West 427 491 34,000  Level FlightAware ADS-B
Wed 12:03:17 PM 40.0920 -78.0730 269° West 427 491 34,000  Level FlightAware ADS-B
Wed 12:04:02 PM 40.0900 -78.1820 269° West 427 491 34,000  Level FlightAware ADS-B
Wed 12:04:47 PM 40.0880 -78.2940 269° West 427 491 34,000  Level FlightAware ADS-B
Wed 12:05:27 PM 40.0860 -78.3890 268° West 426 490 34,000  Level FlightAware ADS-B
Wed 12:06:12 PM 40.0840 -78.5170 269° West 425 489 34,000  Level FlightAware ADS-B
Wed 12:06:52 PM 40.0820 -78.6210 269° West 422 486 34,000  Level FlightAware ADS-B
Wed 12:07:32 PM 40.0800 -78.7240 269° West 423 487 34,000  Level FlightAware ADS-B
Wed 12:08:17 PM 40.0770 -78.8390 268° West 424 488 34,000  Level FlightAware ADS-B
Wed 12:08:52 PM 40.0750 -78.9210 268° West 424 488 34,000  Level FlightAware ADS-B
Wed 12:09:42 PM 40.0720 -79.0550 268° West 425 489 34,000  Level FlightAware ADS-B
Wed 12:10:12 PM 40.0710 -79.1260 269° West 423 487 34,000  Level FlightAware ADS-B
Wed 12:11:02 PM 40.0670 -79.2600 268° West 428 493 34,000  Level FlightAware ADS-B
Wed 12:11:42 PM 40.0650 -79.3590 269° West 432 497 34,000  Level FlightAware ADS-B
Wed 12:12:27 PM 40.0620 -79.4760 268° West 433 498 34,000 67 Level FlightAware ADS-B
Wed 12:13:12 PM 40.0580 -79.5990 268° West 432 497 34,100  Climbing FlightAware ADS-B
Wed 12:13:52 PM 40.0550 -79.7020 268° West 431 496 34,000 -71 Descending FlightAware ADS-B
Wed 12:14:37 PM 40.0520 -79.8190 268° West 430 495 34,000  Level FlightAware ADS-B
Wed 12:15:17 PM 40.0480 -79.9270 267° West 430 495 34,000  Level FlightAware ADS-B
Wed 12:15:57 PM 40.0450 -80.0320 268° West 430 495 34,000  Level FlightAware ADS-B
Wed 12:16:42 PM 40.0410 -80.1450 267° West 431 496 34,000  Level FlightAware ADS-B
Wed 12:17:12 PM 40.0390 -80.2200 268° West 432 497 34,000  Level FlightAware ADS-B
Wed 12:17:57 PM 40.0340 -80.3290 267° West 432 497 34,000  Level FlightAware ADS-B
Wed 12:18:47 PM 40.0300 -80.4730 268° West 429 494 34,000  Level FlightAware ADS-B
Wed 12:19:27 PM 40.0260 -80.5780 267° West 428 493 34,000 71 Level FlightAware ADS-B
Wed 12:20:12 PM 40.0220 -80.6880 267° West 423 487 34,100  Climbing FlightAware ADS-B
Wed 12:20:52 PM 40.0160 -80.7950 266° West 423 487 34,000 -71 Descending FlightAware ADS-B
Wed 12:21:37 PM 39.9960 -80.9050 257° West 428 493 34,000  Level FlightAware ADS-B
Wed 12:22:17 PM 39.9780 -81.0070 257° West 433 498 34,000  Level FlightAware ADS-B
Wed 12:22:57 PM 39.9610 -81.1070 258° West 434 499 34,000 71 Level FlightAware ADS-B
Wed 12:23:42 PM 39.9420 -81.2190 258° West 433 498 34,100 71 Climbing FlightAware ADS-B
Wed 12:24:22 PM 39.9250 -81.3210 258° West 431 496 34,100 -75 Level FlightAware ADS-B
Wed 12:25:02 PM 39.9070 -81.4270 258° West 430 495 34,000 -71 Descending FlightAware ADS-B
Wed 12:25:47 PM 39.8880 -81.5380 257° West 431 496 34,000  Level FlightAware ADS-B
Wed 12:26:27 PM 39.8700 -81.6410 257° West 433 498 34,000  Level FlightAware ADS-B
Wed 12:27:12 PM 39.8510 -81.7520 257° West 434 499 34,000  Level FlightAware ADS-B
Wed 12:27:52 PM 39.8340 -81.8540 258° West 435 501 34,000  Level FlightAware ADS-B
Wed 12:28:32 PM 39.8140 -81.9590 256° West 436 502 34,000  Level FlightAware ADS-B
Wed 12:29:17 PM 39.7940 -82.0730 257° West 436 502 34,000 71 Level FlightAware ADS-B
Wed 12:29:57 PM 39.7770 -82.1760 258° West 435 501 34,100 75 Climbing FlightAware ADS-B
Wed 12:30:37 PM 39.7600 -82.2770 258° West 433 498 34,100 -71 Level FlightAware ADS-B
Wed 12:31:22 PM 39.7430 -82.3890 259° West 432 497 34,000 -71 Descending FlightAware ADS-B
Wed 12:32:02 PM 39.7280 -82.4920 259° West 431 496 34,000  Level FlightAware ADS-B
Wed 12:32:47 PM 39.7120 -82.6010 259° West 433 498 34,000  Level FlightAware ADS-B
Wed 12:33:27 PM 39.6960 -82.7080 259° West 434 499 34,000  Level FlightAware ADS-B
Wed 12:34:07 PM 39.6800 -82.8120 259° West 434 499 34,000  Level FlightAware ADS-B
Wed 12:34:52 PM 39.6630 -82.9180 258° West 437 503 34,000  Level FlightAware ADS-B
Wed 12:35:32 PM 39.6440 -83.0310 258° West 438 504 34,000  Level FlightAware ADS-B
Wed 12:36:17 PM 39.6250 -83.1460 258° West 438 504 34,000  Level FlightAware ADS-B
Wed 12:36:57 PM 39.6100 -83.2450 259° West 438 504 34,000  Level FlightAware ADS-B
Wed 12:37:42 PM 39.5930 -83.3560 259° West 438 504 34,000 71 Level FlightAware ADS-B
Wed 12:38:22 PM 39.5810 -83.4570 261° West 434 499 34,100  Climbing FlightAware ADS-B
Wed 12:38:57 PM 39.5730 -83.5480 264° West 433 498 34,000 -75 Descending FlightAware ADS-B
Wed 12:39:42 PM 39.5750 -83.6690 271° West 433 498 34,000  Level FlightAware ADS-B
Wed 12:40:27 PM 39.5760 -83.7820 271° West 432 497 34,000  Level FlightAware ADS-B
Wed 12:41:07 PM 39.5770 -83.8850 271° West 431 496 34,000  Level FlightAware ADS-B
Wed 12:41:47 PM 39.5780 -83.9770 271° West 430 495 34,000  Level FlightAware ADS-B
Wed 12:42:27 PM 39.5790 -84.0820 271° West 428 493 34,000  Level FlightAware ADS-B
Wed 12:43:12 PM 39.5790 -84.1870 270° West 428 493 34,000  Level FlightAware ADS-B
Wed 12:43:52 PM 39.5790 -84.2740 270° West 428 493 34,000  Level FlightAware ADS-B
Wed 12:44:32 PM 39.5790 -84.3610 270° West 428 493 34,000  Level FlightAware ADS-B
Wed 12:45:22 PM 39.5790 -84.4710 270° West 428 493 34,000  Level FlightAware ADS-B
Wed 12:46:02 PM 39.5840 -84.6510 272° West 439 505 34,000  Level FlightAware ADS-B
Wed 12:46:52 PM 39.5850 -84.7830 271° West 441 507 34,000  Level FlightAware ADS-B
Wed 12:47:42 PM 39.5740 -84.9140 264° West 443 510 34,000  Level FlightAware ADS-B
Wed 12:48:22 PM 39.5570 -85.0110 257° West 443 510 34,000  Level FlightAware ADS-B
Wed 12:49:02 PM 39.5380 -85.1270 258° West 442 509 34,000  Level FlightAware ADS-B
Wed 12:49:47 PM 39.5180 -85.2420 257° West 441 507 34,000  Level FlightAware ADS-B
Wed 12:50:42 PM 39.4950 -85.3850 258° West 441 507 34,000  Level FlightAware ADS-B
Wed 12:51:22 PM 39.4740 -85.4850 255° West 442 509 34,000  Level FlightAware ADS-B
Wed 12:52:07 PM 39.4510 -85.5990 255° West 440 506 34,000  Level FlightAware ADS-B
Wed 12:52:47 PM 39.4300 -85.7030 255° West 441 507 34,000  Level FlightAware ADS-B
Wed 12:53:32 PM 39.4090 -85.8130 256° West 443 510 34,000  Level FlightAware ADS-B
Wed 12:54:12 PM 39.3890 -85.9180 256° West 442 509 34,000  Level FlightAware ADS-B
Wed 12:54:52 PM 39.3700 -86.0200 256° West 443 510 34,000  Level FlightAware ADS-B
Wed 12:55:37 PM 39.3560 -86.1340 261° West 447 514 34,000  Level FlightAware ADS-B
Wed 12:56:17 PM 39.3580 -86.2430 271° West 448 516 34,000  Level FlightAware ADS-B
Wed 12:57:02 PM 39.3590 -86.3660 271° West 448 516 34,000  Level FlightAware ADS-B
Wed 12:57:57 PM 39.3600 -86.5150 271° West 447 514 34,000  Level FlightAware ADS-B
Wed 12:58:37 PM 39.3610 -86.6220 271° West 445 512 34,000  Level FlightAware ADS-B
Wed 12:59:22 PM 39.3620 -86.7370 271° West 442 509 34,000  Level FlightAware ADS-B
Wed 01:00:02 PM 39.3620 -86.8420 270° West 439 505 34,000  Level FlightAware ADS-B
Wed 01:00:47 PM 39.3630 -86.9590 271° West 437 503 34,000  Level FlightAware ADS-B
Wed 01:01:27 PM 39.3630 -87.0660 270° West 437 503 34,000  Level FlightAware ADS-B
Wed 01:02:12 PM 39.3640 -87.1810 271° West 437 503 34,000  Level FlightAware ADS-B
Wed 01:02:52 PM 39.3870 -87.2810 287° West 438 504 34,000  Level FlightAware ADS-B
Wed 01:03:47 PM 39.4640 -87.3780 316° Northwest 445 512 34,000  Level FlightAware ADS-B
Wed 01:04:32 PM 39.5510 -87.4360 333° Northwest 444 511 34,000  Level FlightAware ADS-B
Wed 01:05:12 PM 39.6250 -87.4800 335° Northwest 445 512 34,000  Level FlightAware ADS-B
Wed 01:05:52 PM 39.6960 -87.5220 336° Northwest 447 514 34,000  Level FlightAware ADS-B
Wed 01:06:27 PM 39.7630 -87.5630 335° Northwest 449 517 34,000 60 Level FlightAware ADS-B
Wed 01:07:32 PM 39.8880 -87.6350 336° Northwest 451 519 34,100  Climbing FlightAware ADS-B
Wed 01:08:12 PM 39.9170 -87.6480 341° North 452 520 34,000 -71 Descending FlightAware ADS-B
Wed 01:08:57 PM 40.0600 -87.7090 342° North 457 526 34,000  Level FlightAware ADS-B
Wed 01:09:37 PM 40.1370 -87.7450 340° North 455 524 34,000 75 Level FlightAware ADS-B
Wed 01:10:17 PM 40.2080 -87.8070 326° Northwest 447 514 34,100 71 Climbing FlightAware ADS-B
Wed 01:11:02 PM 40.2770 -87.8770 322° Northwest 444 511 34,100 -75 Level FlightAware ADS-B
Wed 01:11:37 PM 40.3340 -87.9390 320° Northwest 439 505 34,000 -71 Descending FlightAware ADS-B
Wed 01:12:27 PM 40.3850 -88.0490 301° West 422 486 34,000  Level FlightAware ADS-B
Wed 01:13:07 PM 40.3880 -88.1520 272° West 414 476 34,000  Level FlightAware ADS-B
Wed 01:13:52 PM 40.3780 -88.2600 263° West 411 473 34,000 225 Level FlightAware ADS-B
Wed 01:14:27 PM 40.3700 -88.3460 263° West 414 476 34,300 706 Climbing FlightAware ADS-B
Wed 01:15:17 PM 40.3590 -88.4690 263° West 409 471 35,000 867 Climbing FlightAware ADS-B
Wed 01:15:57 PM 40.3500 -88.5660 263° West 405 466 35,600 750 Climbing FlightAware ADS-B
Wed 01:16:37 PM 40.3410 -88.6590 263° West 404 465 36,000 282 Climbing FlightAware ADS-B
Wed 01:17:22 PM 40.3300 -88.7760 263° West 394 453 36,000  Level FlightAware ADS-B
Wed 01:18:02 PM 40.3210 -88.8680 263° West 393 452 36,000  Level FlightAware ADS-B
Wed 01:18:42 PM 40.3130 -88.9540 263° West 394 453 36,000  Level FlightAware ADS-B
Wed 01:19:27 PM 40.3020 -89.0690 263° West 395 455 36,000  Level FlightAware ADS-B
Wed 01:20:07 PM 40.2920 -89.1650 262° West 399 459 36,000  Level FlightAware ADS-B
Wed 01:20:47 PM 40.2830 -89.2530 262° West 403 464 36,000  Level FlightAware ADS-B
Wed 01:21:32 PM 40.2730 -89.3610 263° West 406 467 36,000  Level FlightAware ADS-B
Wed 01:22:17 PM 40.2610 -89.4760 262° West 411 473 36,000 75 Level FlightAware ADS-B
Wed 01:22:52 PM 40.2520 -89.5660 263° West 412 474 36,100 75 Climbing FlightAware ADS-B
Wed 01:23:37 PM 40.2400 -89.6810 262° West 413 475 36,100 -67 Level FlightAware ADS-B
Wed 01:24:22 PM 40.2330 -89.7890 265° West 418 481 36,000 -71 Descending FlightAware ADS-B
Wed 01:25:02 PM 40.2300 -89.8890 268° West 416 479 36,000 71 Level FlightAware ADS-B
Wed 01:25:47 PM 40.2260 -90.0030 267° West 414 476 36,100  Climbing FlightAware ADS-B
Wed 01:26:22 PM 40.2230 -90.0810 267° West 413 475 36,000 -75 Descending FlightAware ADS-B
Wed 01:27:07 PM 40.2180 -90.2000 267° West 410 472 36,000  Level FlightAware ADS-B
Wed 01:27:52 PM 40.2140 -90.3080 267° West 410 472 36,000  Level FlightAware ADS-B
Wed 01:28:32 PM 40.2100 -90.4090 267° West 410 472 36,000  Level FlightAware ADS-B
Wed 01:29:07 PM 40.2080 -90.4900 268° West 411 473 36,000  Level FlightAware ADS-B
Wed 01:29:52 PM 40.2040 -90.5900 267° West 411 473 36,000  Level FlightAware ADS-B
Wed 01:30:37 PM 40.2030 -90.7180 269° West 408 470 36,000  Level FlightAware ADS-B
Wed 01:31:17 PM 40.2010 -90.8210 269° West 405 466 36,000  Level FlightAware ADS-B
Wed 01:32:02 PM 40.2000 -90.9250 269° West 402 463 36,000  Level FlightAware ADS-B
Wed 01:32:42 PM 40.1990 -91.0220 269° West 402 463 36,000  Level FlightAware ADS-B
Wed 01:33:22 PM 40.1980 -91.1160 269° West 405 466 36,000  Level FlightAware ADS-B
Wed 01:34:07 PM 40.1930 -91.2250 267° West 405 466 36,000  Level FlightAware ADS-B
Wed 01:34:42 PM 40.1820 -91.3120 261° West 409 471 36,000  Level FlightAware ADS-B
Wed 01:35:32 PM 40.1670 -91.4320 261° West 411 473 36,000 67 Level FlightAware ADS-B
Wed 01:36:12 PM 40.1540 -91.5340 261° West 409 471 36,100  Climbing FlightAware ADS-B
Wed 01:36:57 PM 40.1400 -91.6390 260° West 407 468 36,000 -75 Descending FlightAware ADS-B
Wed 01:37:32 PM 40.1290 -91.7240 260° West 405 466 36,000  Level FlightAware ADS-B
Wed 01:38:22 PM 40.1130 -91.8500 261° West 407 468 36,000  Level FlightAware ADS-B
Wed 01:39:02 PM 40.1010 -91.9410 260° West 406 467 36,000  Level FlightAware ADS-B
Wed 01:39:37 PM 40.0900 -92.0250 260° West 407 468 36,000  Level FlightAware ADS-B
Wed 01:40:27 PM 40.0730 -92.1560 260° West 411 473 36,000  Level FlightAware ADS-B
Wed 01:41:17 PM 40.0580 -92.2680 260° West 411 473 36,000  Level FlightAware ADS-B
Wed 01:41:57 PM 40.0470 -92.3510 260° West 411 473 36,000  Level FlightAware ADS-B
Wed 01:42:37 PM 40.0310 -92.4700 260° West 415 478 36,000  Level FlightAware ADS-B
Wed 01:43:27 PM 40.0140 -92.5930 260° West 416 479 36,000  Level FlightAware ADS-B
Wed 01:44:12 PM 39.9990 -92.7070 260° West 415 478 36,000  Level FlightAware ADS-B
Wed 01:44:52 PM 39.9850 -92.8090 260° West 416 479 36,000  Level FlightAware ADS-B
Wed 01:45:32 PM 39.9710 -92.9050 259° West 417 480 36,000  Level FlightAware ADS-B
Wed 01:46:17 PM 39.9560 -93.0160 260° West 417 480 36,000  Level FlightAware ADS-B
Wed 01:46:57 PM 39.9420 -93.1140 259° West 418 481 36,000  Level FlightAware ADS-B
Wed 01:47:42 PM 39.9260 -93.2250 259° West 420 483 36,000  Level FlightAware ADS-B
Wed 01:48:22 PM 39.9120 -93.3240 260° West 420 483 36,000  Level FlightAware ADS-B
Wed 01:49:02 PM 39.8980 -93.4250 260° West 419 482 36,000  Level FlightAware ADS-B
Wed 01:49:47 PM 39.8810 -93.5370 259° West 416 479 36,000  Level FlightAware ADS-B
Wed 01:50:27 PM 39.8670 -93.6330 259° West 414 476 36,000  Level FlightAware ADS-B
Wed 01:51:07 PM 39.8530 -93.7340 260° West 413 475 36,000  Level FlightAware ADS-B
Wed 01:51:52 PM 39.8370 -93.8400 259° West 413 475 36,000  Level FlightAware ADS-B
Wed 01:52:32 PM 39.8230 -93.9370 259° West 415 478 36,000  Level FlightAware ADS-B
Wed 01:53:17 PM 39.8060 -94.0500 259° West 418 481 36,000  Level FlightAware ADS-B
Wed 01:53:57 PM 39.7910 -94.1450 258° West 419 482 36,000 75 Level FlightAware ADS-B
Wed 01:54:37 PM 39.7760 -94.2480 259° West 417 480 36,100  Climbing FlightAware ADS-B
Wed 01:55:22 PM 39.7600 -94.3550 259° West 415 478 36,000 -71 Descending FlightAware ADS-B
Wed 01:56:02 PM 39.7450 -94.4520 259° West 415 478 36,000  Level FlightAware ADS-B
Wed 01:56:47 PM 39.7280 -94.5620 259° West 417 480 36,000  Level FlightAware ADS-B
Wed 01:57:27 PM 39.7130 -94.6590 259° West 418 481 36,000  Level FlightAware ADS-B
Wed 01:58:12 PM 39.6950 -94.7720 258° West 420 483 36,000 71 Level FlightAware ADS-B
Wed 01:58:52 PM 39.6800 -94.8720 259° West 418 481 36,100 75 Climbing FlightAware ADS-B
Wed 01:59:32 PM 39.6650 -94.9670 258° West 415 478 36,100 -71 Level FlightAware ADS-B
Wed 02:00:17 PM 39.6470 -95.0760 258° West 411 473 36,000 -75 Descending FlightAware ADS-B
Wed 02:00:52 PM 39.6350 -95.1520 258° West 409 471 36,000  Level FlightAware ADS-B
Wed 02:01:42 PM 39.6150 -95.2780 258° West 406 467 36,000  Level FlightAware ADS-B
Wed 02:02:22 PM 39.5990 -95.3750 258° West 406 467 36,000  Level FlightAware ADS-B
Wed 02:03:02 PM 39.5840 -95.4700 258° West 407 468 36,000  Level FlightAware ADS-B
Wed 02:03:47 PM 39.5660 -95.5770 258° West 408 470 36,000  Level FlightAware ADS-B
Wed 02:04:27 PM 39.5510 -95.6670 258° West 408 470 36,000  Level FlightAware ADS-B
Wed 02:05:07 PM 39.5360 -95.7630 259° West 409 471 36,000 71 Level FlightAware ADS-B
Wed 02:05:52 PM 39.5170 -95.8770 258° West 408 470 36,100  Climbing FlightAware ADS-B
Wed 02:06:27 PM 39.5040 -95.9500 257° West 408 470 36,000 -75 Descending FlightAware ADS-B
Wed 02:07:12 PM 39.4850 -96.0640 258° West 408 470 36,000  Level FlightAware ADS-B
Wed 02:07:57 PM 39.4690 -96.1550 257° West 408 470 36,000 71 Level FlightAware ADS-B
Wed 02:08:37 PM 39.4690 -96.1550 257° West 403 464 36,100  Climbing FlightAware ADS-B
Wed 02:09:17 PM 39.4360 -96.3540 258° West 396 456 36,000 -71 Descending FlightAware ADS-B
Wed 02:10:02 PM 39.4200 -96.4450 257° West 396 456 36,000  Level FlightAware ADS-B
Wed 02:10:47 PM 39.4230 -96.4250 79° East 396 456 36,000  Level FlightAware ADS-B
Wed 02:11:27 PM 39.3840 -96.6530 258° West 399 459 36,000  Level FlightAware ADS-B
Wed 02:12:32 PM 39.3700 -96.7340 257° West 399 459 36,000 52 Level FlightAware ADS-B
Wed 02:13:22 PM 39.3380 -96.9150 257° West 398 458 36,100 67 Climbing FlightAware ADS-B
Wed 02:14:02 PM 39.3240 -96.9940 257° West 398 458 36,100  Level FlightAware ADS-B
Wed 02:14:42 PM 39.3100 -97.0730 257° West 398 458 36,100  Level FlightAware ADS-B
Wed 02:15:22 PM 39.2960 -97.1520 257° West 398 458 36,100  Level FlightAware ADS-B
Wed 02:16:02 PM 39.2820 -97.2300 257° West 398 458 36,100  Level FlightAware ADS-B
Wed 02:16:52 PM 39.2640 -97.3290 257° West 398 458 36,100  Level FlightAware ADS-B
Wed 02:17:32 PM 39.2500 -97.4080 257° West 398 458 36,100 -83 Level FlightAware ADS-B
Wed 02:18:04 PM 39.2239 -97.5564 257° West 393 452 36,000 -63 Descending Kansas City Center
Wed 02:19:08 PM 39.1986 -97.6881 256° West 397 457 36,000  Level Kansas City Center
Wed 02:20:08 PM 39.1708 -97.8439 257° West 397 457 36,000  Level Kansas City Center
Wed 02:21:09 PM 39.1419 -97.9889 256° West 399 459 36,000  Level Kansas City Center
Wed 02:22:11 PM 39.1158 -98.1322 257° West 404 465 36,000 49 Level Kansas City Center
Wed 02:23:12 PM 39.0894 -98.2697 256° West 402 463 36,100  Climbing Kansas City Center
Wed 02:24:16 PM 39.0644 -98.4086 257° West 400 460 36,000 -48 Descending Kansas City Center
Wed 02:25:16 PM 39.0378 -98.5464 256° West 399 459 36,000  Level Kansas City Center
Wed 02:26:17 PM 39.0106 -98.6878 256° West 406 467 36,000  Level Kansas City Center
Wed 02:27:21 PM 38.9828 -98.8294 256° West 410 472 36,000  Level Kansas City Center
Wed 02:28:04 PM 38.9581 -98.9489 255° West 407 468 36,000  Level Denver Center
Wed 02:29:06 PM 38.9272 -99.1083 256° West 409 471 36,000  Level Denver Center
Wed 02:30:08 PM 38.8997 -99.2461 256° West 414 476 36,000  Level Denver Center
Wed 02:31:09 PM 38.8672 -99.4083 256° West 420 483 36,000  Level Denver Center
Wed 02:32:23 PM 38.8392 -99.5511 256° West 429 494 36,000  Level Denver Center
Wed 02:33:25 PM 38.8003 -99.7400 255° West 431 496 36,000  Level Denver Center
Wed 02:34:27 PM 38.7711 -99.8836 255° West 433 498 36,000  Level Denver Center
Wed 02:35:28 PM 38.7378 -100.0500 256° West 433 498 36,000  Level Denver Center
Wed 02:36:30 PM 38.7075 -100.1922 255° West 435 501 36,000  Level Denver Center
Wed 02:37:32 PM 38.6725 -100.3600 255° West 437 503 36,000  Level Denver Center
Wed 02:38:33 PM 38.6417 -100.5039 255° West 438 504 36,000  Level Denver Center
Wed 02:39:35 PM 38.6108 -100.6461 255° West 437 503 36,000  Level Denver Center
Wed 02:40:37 PM 38.5756 -100.8142 255° West 438 504 36,000  Level Denver Center
Wed 02:41:38 PM 38.5453 -100.9569 255° West 436 502 36,000  Level Denver Center
Wed 02:47:14 PM 38.3575 -101.8130 255° West 439 505 36,000  Level FlightAware ADS-B
Wed 02:47:44 PM 38.3406 -101.8880 254° West 438 504 36,000  Level FlightAware ADS-B
Wed 02:48:14 PM 38.3238 -101.9620 254° West 438 504 36,000  Level FlightAware ADS-B
Wed 02:48:46 PM 38.3063 -102.0400 254° West 437 503 36,000  Level FlightAware ADS-B
Wed 02:49:17 PM 38.2887 -102.1170 254° West 438 504 36,000  Level FlightAware ADS-B
Wed 02:49:47 PM 38.2717 -102.1920 254° West 438 504 36,000  Level FlightAware ADS-B
Wed 02:50:18 PM 38.2547 -102.2670 254° West 437 503 36,000  Level FlightAware ADS-B
Wed 02:50:48 PM 38.2377 -102.3400 254° West 437 503 36,000  Level FlightAware ADS-B
Wed 02:51:24 PM 38.2173 -102.4300 254° West 438 504 36,000  Level FlightAware ADS-B
Wed 02:51:54 PM 38.2002 -102.5040 254° West 439 505 36,000  Level FlightAware ADS-B
Wed 02:52:24 PM 38.1828 -102.5790 254° West 440 506 36,000  Level FlightAware ADS-B
Wed 02:53:07 PM 38.1585 -102.6830 253° West 441 507 36,000  Level FlightAware ADS-B
Wed 02:53:37 PM 38.1409 -102.7590 254° West 442 509 36,000  Level FlightAware ADS-B
Wed 02:54:07 PM 38.1234 -102.8340 254° West 442 509 36,000  Level FlightAware ADS-B
Wed 02:54:37 PM 38.1058 -102.9090 253° West 441 507 36,000 98 Level FlightAware ADS-B
Wed 02:55:08 PM 38.0880 -102.9850 253° West 440 506 36,100  Climbing FlightAware ADS-B
Wed 02:55:39 PM 38.0701 -103.0610 253° West 439 505 36,000 -97 Descending FlightAware ADS-B
Wed 02:56:10 PM 38.0520 -103.1370 253° West 438 504 36,000  Level FlightAware ADS-B
Wed 02:56:42 PM 38.0332 -103.2160 253° West 438 504 36,000  Level FlightAware ADS-B
Wed 02:57:12 PM 38.0153 -103.2910 253° West 441 507 36,000  Level FlightAware ADS-B
Wed 02:57:43 PM 37.9972 -103.3660 253° West 442 509 36,000  Level FlightAware ADS-B
Wed 02:58:13 PM 37.9792 -103.4410 253° West 444 511 36,000  Level FlightAware ADS-B
Wed 02:58:43 PM 37.9613 -103.5150 253° West 444 511 36,000 100 Level FlightAware ADS-B
Wed 02:59:13 PM 37.9431 -103.5900 253° West 444 511 36,100  Climbing FlightAware ADS-B
Wed 02:59:43 PM 37.9250 -103.6650 253° West 445 512 36,000 -98 Descending FlightAware ADS-B
Wed 03:00:14 PM 37.9066 -103.7410 253° West 447 514 36,000  Level FlightAware ADS-B
Wed 03:00:44 PM 37.8884 -103.8160 253° West 449 517 36,000  Level FlightAware ADS-B
Wed 03:01:14 PM 37.8698 -103.8920 253° West 451 519 36,000  Level FlightAware ADS-B
Wed 03:01:44 PM 37.8512 -103.9680 253° West 452 520 36,000  Level FlightAware ADS-B
Wed 03:02:14 PM 37.8323 -104.0440 253° West 453 521 36,000  Level FlightAware ADS-B
Wed 03:02:46 PM 37.8125 -104.1240 253° West 453 521 36,000  Level FlightAware ADS-B
Wed 03:03:17 PM 37.7936 -104.2010 253° West 453 521 36,000  Level FlightAware ADS-B
Wed 03:03:52 PM 37.7717 -104.2890 253° West 454 522 36,000  Level FlightAware ADS-B
Wed 03:04:31 PM 37.7466 -104.3890 252° West 455 524 36,000  Level FlightAware ADS-B
Wed 03:05:10 PM 37.7218 -104.4880 252° West 457 526 36,000  Level FlightAware ADS-B
Wed 03:05:41 PM 37.7022 -104.5660 252° West 461 531 36,000 57 Level FlightAware ADS-B
Wed 03:06:56 PM 37.6535 -104.7590 252° West 460 529 36,100  Climbing FlightAware ADS-B
Wed 03:07:29 PM 37.6321 -104.8440 252° West 460 529 36,000 -76 Descending FlightAware ADS-B
Wed 03:08:15 PM 37.6023 -104.9600 252° West 460 529 36,000  Level FlightAware ADS-B
Wed 03:08:47 PM 37.5814 -105.0420 252° West 461 531 36,000  Level FlightAware ADS-B
Wed 03:09:23 PM 37.5580 -105.1330 252° West 461 531 36,000  Level FlightAware ADS-B
Wed 03:09:54 PM 37.5370 -105.2140 252° West 460 529 36,000  Level FlightAware ADS-B
Wed 03:10:41 PM 37.5066 -105.3310 252° West 459 528 36,000  Level FlightAware ADS-B
Wed 03:11:24 PM 37.4781 -105.4410 252° West 459 528 36,000  Level FlightAware ADS-B
Wed 03:11:54 PM 37.4582 -105.5170 252° West 459 528 36,000  Level FlightAware ADS-B
Wed 03:12:42 PM 37.4275 -105.6319 252° West 458 527 36,000  Level Denver Center
Wed 03:13:44 PM 37.3878 -105.7778 251° West 461 531 36,000  Level Denver Center
Wed 03:14:45 PM 37.3492 -105.9256 252° West 465 535 36,000 49 Level Denver Center
Wed 03:15:47 PM 37.3033 -106.0986 252° West 467 537 36,100  Climbing Denver Center
Wed 03:16:49 PM 37.2628 -106.2461 251° West 467 537 36,000 -48 Descending Denver Center
Wed 03:17:52 PM 37.2169 -106.4175 251° West 465 535 36,000  Level Denver Center
Wed 03:18:52 PM 37.1775 -106.5639 251° West 464 534 36,000  Level Denver Center
Wed 03:19:54 PM 37.1294 -106.7361 251° West 467 537 36,000  Level Denver Center
Wed 03:20:56 PM 37.0894 -106.8842 251° West 470 541 36,000  Level Denver Center
Wed 03:21:58 PM 37.0497 -107.0306 251° West 465 535 36,000  Level Denver Center
Wed 03:22:59 PM 37.0147 -107.2047 256° West 463 533 36,000  Level Denver Center
Wed 03:24:13 PM 36.9861 -107.3553 257° West 466 536 36,000 44 Level Denver Center
Wed 03:25:15 PM 36.9478 -107.5581 257° West 471 542 36,100  Climbing Denver Center
Wed 03:26:17 PM 36.9136 -107.7311 256° West 461 531 36,000 -49 Descending Denver Center
Wed 03:27:18 PM 36.8844 -107.8792 256° West 459 528 36,000  Level Denver Center
Wed 03:28:32 PM 36.8556 -108.0283 256° West 462 532 36,000  Level Denver Center
Wed 03:29:34 PM 36.8175 -108.2253 256° West 460 529 36,000  Level Denver Center
Wed 03:30:36 PM 36.7831 -108.4000 256° West 464 534 36,000  Level Denver Center
Wed 03:31:37 PM 36.7564 -108.5236 255° West 464 534 36,000  Level Denver Center
Wed 03:32:39 PM 36.7161 -108.7250 256° West 469 540 36,000  Level Denver Center
Wed 03:33:41 PM 36.6853 -108.8772 256° West 474 545 36,000  Level Denver Center
Wed 03:34:43 PM 36.6536 -109.0286 255° West 474 545 36,000  Level Denver Center
Wed 03:35:44 PM 36.6175 -109.2056 256° West 475 547 36,000  Level Denver Center
Wed 03:36:46 PM 36.5864 -109.3553 256° West 471 542 36,000  Level Denver Center
Wed 03:37:48 PM 36.5494 -109.5308 255° West 473 544 36,000 49 Level Denver Center
Wed 03:38:49 PM 36.5161 -109.6850 255° West 480 552 36,100 49 Climbing Denver Center
Wed 03:39:51 PM 36.4781 -109.8631 255° West 480 552 36,100 -48 Level Denver Center
Wed 03:40:53 PM 36.4469 -110.0136 256° West 472 543 36,000 -49 Descending Denver Center
Wed 03:41:54 PM 36.4161 -110.1617 256° West 471 542 36,000  Level Denver Center
Wed 03:42:56 PM 36.3756 -110.3492 255° West 470 541 36,000  Level Denver Center
Wed 03:43:58 PM 36.3386 -110.5064 254° West 472 543 36,000  Level Denver Center
Wed 03:45:00 PM 36.3050 -110.6650 255° West 476 548 36,000  Level Denver Center
Wed 03:46:01 PM 36.2692 -110.8239 254° West 477 549 36,000  Level Denver Center
Wed 03:47:03 PM 36.2325 -110.9831 254° West 480 552 36,000  Level Denver Center
Wed 03:48:05 PM 36.1969 -111.1431 255° West 482 555 36,000  Level Denver Center
Wed 03:54:07 PM 35.9450 -112.1210 255° West 492 566 36,000  Level FlightAware ADS-B
Wed 03:54:47 PM 35.9120 -112.2160 247° West 492 566 36,000  Level FlightAware ADS-B
Wed 03:55:32 PM 35.8710 -112.3380 248° West 488 562 36,000  Level FlightAware ADS-B
Wed 03:56:12 PM 35.8360 -112.4390 247° West 488 562 36,000  Level FlightAware ADS-B
Wed 03:56:52 PM 35.8010 -112.5420 247° West 488 562 36,000  Level FlightAware ADS-B
Wed 03:57:37 PM 35.7600 -112.6600 247° West 489 563 36,000  Level FlightAware ADS-B
Wed 03:58:17 PM 35.7250 -112.7620 247° West 491 565 36,000  Level FlightAware ADS-B
Wed 03:59:02 PM 35.6850 -112.8740 246° West 489 563 36,000  Level FlightAware ADS-B
Wed 03:59:42 PM 35.6500 -112.9760 247° West 486 559 36,000  Level FlightAware ADS-B
Wed 04:00:22 PM 35.6150 -113.0760 247° West 483 556 36,000  Level FlightAware ADS-B
Wed 04:01:07 PM 35.5740 -113.1920 247° West 483 556 36,000  Level FlightAware ADS-B
Wed 04:01:47 PM 35.5380 -113.2950 247° West 483 556 36,000  Level FlightAware ADS-B
Wed 04:02:32 PM 35.4990 -113.4040 246° West 483 556 36,000  Level FlightAware ADS-B
Wed 04:03:12 PM 35.4630 -113.5050 246° West 483 556 36,000  Level FlightAware ADS-B
Wed 04:03:57 PM 35.4230 -113.6190 247° West 482 555 36,000  Level FlightAware ADS-B
Wed 04:04:37 PM 35.3880 -113.7170 246° West 481 554 36,000  Level FlightAware ADS-B
Wed 04:05:17 PM 35.3510 -113.8190 246° West 480 552 36,000  Level FlightAware ADS-B
Wed 04:06:02 PM 35.3120 -113.9280 246° West 480 552 36,000  Level FlightAware ADS-B
Wed 04:06:42 PM 35.2760 -114.0290 246° West 478 550 36,000  Level FlightAware ADS-B
Wed 04:07:22 PM 35.2410 -114.1260 246° West 479 551 36,000  Level FlightAware ADS-B
Wed 04:08:07 PM 35.1990 -114.2400 246° West 480 552 36,000  Level FlightAware ADS-B
Wed 04:08:47 PM 35.1630 -114.3400 246° West 479 551 36,000  Level FlightAware ADS-B
Wed 04:09:32 PM 35.1240 -114.4470 246° West 478 550 36,000  Level FlightAware ADS-B
Wed 04:10:12 PM 35.0880 -114.5440 246° West 478 550 36,000  Level FlightAware ADS-B
Wed 04:10:57 PM 35.0450 -114.6600 246° West 478 550 36,000  Level FlightAware ADS-B
Wed 04:11:37 PM 35.0090 -114.7590 246° West 480 552 36,000  Level FlightAware ADS-B
Wed 04:12:17 PM 34.9720 -114.8580 246° West 481 554 36,000  Level FlightAware ADS-B
Wed 04:13:02 PM 34.9320 -114.9650 246° West 479 551 36,000  Level FlightAware ADS-B
Wed 04:13:42 PM 34.8960 -115.0610 245° Southwest 478 550 36,000  Level FlightAware ADS-B
Wed 04:14:27 PM 34.8530 -115.1770 246° West 477 549 36,000  Level FlightAware ADS-B
Wed 04:15:07 PM 34.8170 -115.2730 245° Southwest 477 549 36,000 -225 Level FlightAware ADS-B
Wed 04:15:47 PM 34.7820 -115.3680 246° West 474 545 35,700 -706 Descending FlightAware ADS-B
Wed 04:16:32 PM 34.7410 -115.4760 245° Southwest 477 549 35,000 -918 Descending FlightAware ADS-B
Wed 04:17:12 PM 34.7040 -115.5730 245° Southwest 481 554 34,400 -988 Descending FlightAware ADS-B
Wed 04:17:57 PM 34.6620 -115.6840 245° Southwest 484 557 33,600 -1,059 Descending FlightAware ADS-B
Wed 04:18:37 PM 34.6230 -115.7860 245° Southwest 483 556 32,900 -975 Descending FlightAware ADS-B
Wed 04:19:17 PM 34.5870 -115.8810 245° Southwest 480 552 32,300 -988 Descending FlightAware ADS-B
Wed 04:20:02 PM 34.5440 -115.9930 245° Southwest 480 552 31,500 -660 Descending FlightAware ADS-B
Wed 04:20:57 PM 34.4960 -116.1170 245° Southwest 479 551 31,200 -189 Descending FlightAware ADS-B
Wed 04:21:37 PM 34.4640 -116.2000 245° Southwest 479 551 31,200 -1,341 Level FlightAware ADS-B
Wed 04:22:22 PM 34.4140 -116.3290 245° Southwest 482 555 29,300 -1,765 Descending FlightAware ADS-B
Wed 04:23:02 PM 34.3740 -116.4320 245° Southwest 481 554 28,700 -1,200 Descending FlightAware ADS-B
Wed 04:23:47 PM 34.3320 -116.5410 245° Southwest 486 559 27,600 -1,976 Descending FlightAware ADS-B
Wed 04:24:27 PM 34.2930 -116.6390 244° Southwest 485 558 25,900 -2,625 Descending FlightAware ADS-B
Wed 04:25:07 PM 34.2550 -116.7350 244° Southwest 478 550 24,100 -2,824 Descending FlightAware ADS-B
Wed 04:25:52 PM 34.2120 -116.8430 244° Southwest 472 543 21,900 -2,894 Descending FlightAware ADS-B
Wed 04:26:32 PM 34.1740 -116.9400 245° Southwest 454 522 20,000 -2,400 Descending FlightAware ADS-B
Wed 04:27:17 PM 34.1360 -117.0380 245° Southwest 434 499 18,500 -1,482 Descending FlightAware ADS-B
Wed 04:27:57 PM 34.1030 -117.1210 244° Southwest 397 457 17,900 -1,482 Descending FlightAware ADS-B
Wed 04:28:42 PM 34.0630 -117.2090 241° Southwest 388 447 16,400 -1,886 Descending FlightAware ADS-B
Wed 04:29:07 PM 34.0470 -117.2560 248° West 367 422 15,700 -1,569 Descending FlightAware ADS-B
Wed 04:29:47 PM 34.0390 -117.3340 263° West 361 415 14,700 -1,553 Descending FlightAware ADS-B
Wed 04:30:32 PM 34.0300 -117.4270 263° West 360 414 13,500 -1,624 Descending FlightAware ADS-B
Wed 04:31:12 PM 34.0300 -117.5050 270° West 350 403 12,400 -1,500 Descending FlightAware ADS-B
Wed 04:32:12 PM 34.0290 -117.6200 269° West 348 400 11,000 -1,140 Descending FlightAware ADS-B
Wed 04:32:52 PM 34.0210 -117.6970 263° West 316 364 10,500 -857 Descending FlightAware ADS-B
Wed 04:33:22 PM 34.0160 -117.7470 263° West 304 350 10,000 -1,300 Descending FlightAware ADS-B
Wed 04:33:52 PM 34.0120 -117.7980 265° West 297 342 9,200 -1,600 Descending FlightAware ADS-B
Wed 04:34:07 PM 34.0090 -117.8210 261° West 298 343 8,800 -1,650 Descending FlightAware ADS-B
Wed 04:34:32 PM 34.0060 -117.8630 265° West 296 341 8,100 -1,418 Descending FlightAware ADS-B
Wed 04:35:02 PM 34.0010 -117.9120 263° West 288 331 7,500 -1,309 Descending FlightAware ADS-B
Wed 04:35:27 PM 33.9970 -117.9500 263° West 286 329 6,900 -1,527 Descending FlightAware ADS-B
Wed 04:35:57 PM 33.9920 -117.9980 263° West 286 329 6,100 -1,300 Descending FlightAware ADS-B
Wed 04:36:27 PM 33.9880 -118.0430 264° West 274 315 5,600 -1,091 Descending FlightAware ADS-B
Wed 04:36:52 PM 33.9840 -118.0830 263° West 268 308 5,100 -1,200 Descending FlightAware ADS-B
Wed 04:37:07 PM 33.9820 -118.1040 263° West 269 310 4,800 -1,333 Descending FlightAware ADS-B
Wed 04:37:37 PM 33.9780 -118.1480 264° West 271 312 4,100 -1,527 Descending FlightAware ADS-B
Wed 04:38:02 PM 33.9740 -118.1860 263° West 261 300 3,400 -1,543 Descending FlightAware ADS-B
Wed 04:38:12 PM 33.9720 -118.2010 261° West 252 290 3,200 -1,200 Descending FlightAware ADS-B
Wed 04:38:47 PM 33.9680 -118.2440 264° West 237 273 2,500 -800 Descending FlightAware ADS-B
Wed 04:39:27 PM 33.9630 -118.2920 263° West 221 254 2,200 -800 Descending FlightAware ADS-B
Wed 04:39:47 PM 33.9630 -118.2980 270° West 177 204 1,700 -667 Descending FlightAware ADS-B
Wed 04:40:12 PM 33.9600 -118.3210 261° West 177 204 1,700 -450 Level FlightAware ADS-B
Wed 04:40:27 PM 33.9600 -118.3230 270° West 177 204 1,400 -1,200 Descending FlightAware ADS-B
Wed 04:40:42 PM 33.9590 -118.3340 264° West 131 151 1,100 -831 Descending FlightAware ADS-B
Wed 04:41:32 PM 33.9550 -118.3720 263° West 132 152 500 -675 Descending FlightAware ADS-B
Wed 04:42:02 PM 33.9530 -118.3940 264° West 130 150 200 -369 Descending FlightAware ADS-B
Wed 04:42:37 PM 33.9510 -118.4160 264° West 129 148 100 -171 Descending FlightAware ADS-B
Wed 04:50:00 PM 33.9425 -118.4081 259° West  Level Estimated

Login

Don't have an account? Register now (free) for customized features, flight alerts, and more!